TimeEST,TemperatureF,Dew PointF,Humidity,Sea Level PressureIn,VisibilityMPH,Wind Direction,Wind SpeedMPH,Gust SpeedMPH,PrecipitationIn,Events,Conditions,WindDirDegrees,DateUTC
12:35 AM,35.6,24.8,65,29.90,10.0,Calm,Calm,-,N/A,,Clear,0,2013-03-02 05:35:00
12:55 AM,33.8,24.8,70,29.91,10.0,Calm,Calm,-,N/A,,Mostly Cloudy,0,2013-03-02 05:55:00
1:15 AM,30.2,23.0,75,29.91,10.0,Calm,Calm,-,N/A,,Mostly Cloudy,0,2013-03-02 06:15:00
1:35 AM,30.2,24.8,80,29.92,10.0,Calm,Calm,-,N/A,,Scattered Clouds,0,2013-03-02 06:35:00
1:55 AM,30.2,24.8,80,29.91,10.0,Calm,Calm,-,N/A,,Scattered Clouds,0,2013-03-02 06:55:00
2:15 AM,30.2,23.0,75,29.91,10.0,Calm,Calm,-,N/A,,Mostly Cloudy,0,2013-03-02 07:15:00
2:35 AM,30.2,24.8,80,29.91,10.0,Calm,Calm,-,N/A,,Overcast,0,2013-03-02 07:35:00
2:55 AM,30.2,26.6,86,29.90,10.0,Calm,Calm,-,N/A,,Overcast,0,2013-03-02 07:55:00
3:15 AM,30.2,26.6,86,29.90,10.0,Calm,Calm,-,N/A,,Overcast,0,2013-03-02 08:15:00
3:35 AM,32.0,26.6,80,29.89,10.0,Calm,Calm,-,N/A,,Overcast,0,2013-03-02 08:35:00
3:55 AM,33.8,26.6,75,29.89,10.0,Calm,Calm,-,N/A,,Overcast,0,2013-03-02 08:55:00
4:15 AM,33.8,28.4,81,29.89,10.0,Calm,Calm,-,N/A,,Overcast,0,2013-03-02 09:15:00
4:35 AM,33.8,28.4,81,29.88,10.0,Calm,Calm,-,N/A,,Overcast,0,2013-03-02 09:35:00
4:55 AM,33.8,26.6,75,29.88,10.0,Calm,Calm,-,N/A,,Overcast,0,2013-03-02 09:55:00
5:15 AM,33.8,26.6,75,29.88,10.0,Calm,Calm,-,N/A,,Overcast,0,2013-03-02 10:15:00
5:35 AM,33.8,26.6,75,29.89,10.0,Calm,Calm,-,N/A,,Overcast,0,2013-03-02 10:35:00
5:55 AM,33.8,26.6,75,29.88,10.0,Calm,Calm,-,N/A,,Overcast,0,2013-03-02 10:55:00
6:15 AM,33.8,26.6,75,29.89,10.0,Calm,Calm,-,N/A,,Overcast,0,2013-03-02 11:15:00
6:35 AM,35.6,28.4,75,29.90,10.0,Calm,Calm,-,N/A,,Overcast,0,2013-03-02 11:35:00
6:55 AM,35.6,26.6,70,29.89,10.0,Calm,Calm,-,N/A,,Overcast,0,2013-03-02 11:55:00
7:15 AM,33.8,26.6,75,29.89,10.0,Calm,Calm,-,N/A,,Overcast,0,2013-03-02 12:15:00
7:35 AM,35.6,26.6,70,29.89,10.0,Calm,Calm,-,N/A,,Overcast,0,2013-03-02 12:35:00
7:55 AM,35.6,26.6,70,29.90,10.0,Calm,Calm,-,N/A,,Overcast,0,2013-03-02 12:55:00
8:15 AM,35.6,26.6,70,29.91,10.0,Calm,Calm,-,N/A,,Overcast,0,2013-03-02 13:15:00
8:35 AM,37.4,26.6,65,29.91,10.0,Calm,Calm,-,N/A,,Overcast,0,2013-03-02 13:35:00
8:55 AM,37.4,26.6,65,29.90,10.0,Calm,Calm,-,N/A,,Overcast,0,2013-03-02 13:55:00
9:15 AM,39.2,24.8,56,29.90,10.0,Calm,Calm,-,N/A,,Overcast,0,2013-03-02 14:15:00
9:35 AM,39.2,24.8,56,29.89,10.0,ENE,3.5,-,N/A,,Overcast,70,2013-03-02 14:35:00
9:55 AM,39.2,24.8,56,29.89,10.0,NE,5.8,-,N/A,,Overcast,40,2013-03-02 14:55:00
10:15 AM,41.0,21.2,45,29.89,10.0,NE,3.5,-,N/A,,Overcast,50,2013-03-02 15:15:00
10:35 AM,42.8,21.2,42,29.89,10.0,NE,6.9,-,N/A,,Overcast,40,2013-03-02 15:35:00
10:55 AM,42.8,21.2,42,29.88,10.0,ENE,6.9,-,N/A,,Overcast,60,2013-03-02 15:55:00
11:15 AM,42.8,21.2,42,29.88,10.0,East,3.5,-,N/A,,Overcast,80,2013-03-02 16:15:00
11:35 AM,44.6,21.2,39,29.87,10.0,NE,5.8,-,N/A,,Overcast,50,2013-03-02 16:35:00
11:55 AM,44.6,21.2,39,29.88,10.0,NNE,3.5,-,N/A,,Overcast,30,2013-03-02 16:55:00
12:15 PM,44.6,23.0,43,29.87,10.0,West,3.5,-,N/A,,Overcast,280,2013-03-02 17:15:00
12:35 PM,44.6,23.0,43,29.86,10.0,NNW,3.5,-,N/A,,Overcast,330,2013-03-02 17:35:00
12:55 PM,44.6,23.0,43,29.85,10.0,NNW,3.5,-,N/A,,Overcast,340,2013-03-02 17:55:00
1:15 PM,44.6,21.2,39,29.84,10.0,West,6.9,-,N/A,,Overcast,260,2013-03-02 18:15:00
1:35 PM,48.2,24.8,40,29.84,10.0,West,3.5,-,N/A,,Overcast,280,2013-03-02 18:35:00
1:55 PM,46.4,23.0,40,29.83,10.0,West,5.8,-,N/A,,Overcast,270,2013-03-02 18:55:00
2:15 PM,46.4,24.8,43,29.83,10.0,Calm,Calm,-,N/A,,Overcast,0,2013-03-02 19:15:00
2:35 PM,46.4,24.8,43,29.83,10.0,NW,5.8,-,N/A,,Overcast,310,2013-03-02 19:35:00
2:55 PM,46.4,23.0,40,29.82,10.0,Calm,Calm,-,N/A,,Overcast,0,2013-03-02 19:55:00
3:15 PM,46.4,24.8,43,29.82,10.0,Calm,Calm,-,N/A,,Mostly Cloudy,0,2013-03-02 20:15:00
3:35 PM,46.4,23.0,40,29.82,10.0,WNW,3.5,-,N/A,,Overcast,290,2013-03-02 20:35:00
3:55 PM,46.4,24.8,43,29.82,10.0,West,3.5,-,N/A,,Overcast,280,2013-03-02 20:55:00
4:15 PM,46.4,24.8,43,29.82,10.0,SW,5.8,-,N/A,,Overcast,230,2013-03-02 21:15:00
4:35 PM,46.4,24.8,43,29.82,10.0,WSW,6.9,-,N/A,,Mostly Cloudy,240,2013-03-02 21:35:00
4:55 PM,46.4,24.8,43,29.82,10.0,West,3.5,-,N/A,,Mostly Cloudy,270,2013-03-02 21:55:00
5:15 PM,46.4,26.6,46,29.82,10.0,West,5.8,-,N/A,,Overcast,260,2013-03-02 22:15:00
5:35 PM,44.6,26.6,49,29.83,10.0,West,3.5,-,N/A,,Overcast,280,2013-03-02 22:35:00
5:55 PM,44.6,28.4,53,29.84,10.0,WNW,3.5,-,N/A,,Overcast,300,2013-03-02 22:55:00
6:15 PM,44.6,28.4,53,29.85,10.0,West,5.8,-,N/A,,Overcast,280,2013-03-02 23:15:00
6:35 PM,42.8,28.4,57,29.85,10.0,West,4.6,-,N/A,,Overcast,260,2013-03-02 23:35:00
6:55 PM,41.0,30.2,65,29.86,10.0,Calm,Calm,-,N/A,,Overcast,0,2013-03-02 23:55:00
7:15 PM,41.0,28.4,61,29.86,10.0,Calm,Calm,-,N/A,,Overcast,0,2013-03-03 00:15:00
7:35 PM,39.2,30.2,70,29.87,10.0,West,3.5,-,N/A,,Partly Cloudy,270,2013-03-03 00:35:00
7:55 PM,39.2,30.2,70,29.87,10.0,West,3.5,-,N/A,,Scattered Clouds,280,2013-03-03 00:55:00
8:15 PM,37.4,30.2,75,29.87,10.0,West,4.6,-,N/A,,Mostly Cloudy,270,2013-03-03 01:15:00
8:35 PM,37.4,30.2,75,29.87,10.0,WNW,3.5,-,N/A,,Mostly Cloudy,300,2013-03-03 01:35:00
8:55 PM,37.4,30.2,75,29.88,10.0,NW,3.5,-,N/A,,Overcast,310,2013-03-03 01:55:00
9:15 PM,37.4,30.2,75,29.90,10.0,NNW,3.5,-,N/A,,Overcast,330,2013-03-03 02:15:00
9:35 PM,37.4,28.4,70,29.91,10.0,Calm,Calm,-,N/A,,Overcast,0,2013-03-03 02:35:00
9:55 PM,37.4,23.0,56,29.91,10.0,NNE,4.6,-,N/A,,Overcast,20,2013-03-03 02:55:00
10:15 PM,37.4,19.4,48,29.92,10.0,North,3.5,-,N/A,,Mostly Cloudy,10,2013-03-03 03:15:00
10:35 PM,35.6,21.2,56,29.92,10.0,North,3.5,-,N/A,,Mostly Cloudy,10,2013-03-03 03:35:00
10:55 PM,35.6,19.4,52,29.92,10.0,North,3.5,-,N/A,,Overcast,10,2013-03-03 03:55:00
11:15 PM,35.6,19.4,52,29.92,10.0,NNE,3.5,-,N/A,,Overcast,30,2013-03-03 04:15:00
11:35 PM,33.8,17.6,52,29.92,10.0,NNE,3.5,-,N/A,,Mostly Cloudy,20,2013-03-03 04:35:00
11:55 PM,33.8,17.6,52,29.92,10.0,North,3.5,-,N/A,,Partly Cloudy,10,2013-03-03 04:55:00